Aérodrome :
LOGIN :

S'inscrire | Disclaimer

   EN    FR    IT 

 










Légende :    VFR   VFR Marginal   IFR   IFR Intensif   IFR Très Intensif
Visi : 
Plafond : 
>= 8 km
>= 3000ft
5 à 8 km
1000 à 3000 ft
1500m à 5 km
500 à 1000 ft
800 à 1500m
200 à 500 ft
< 800m
< 200 ft
Symboles :   Orages  Brouillard  Fortes neiges  Fortes précipitations  Vent > 20 kt
SIGMETs :   Divers  Orages  Givrage  Turbulence  Onde Orograph.  Cendres Volcan.







- Altitude de l'aérodrome : 233 ft
- Code IATA : REU


LERS - Reus Tarragona

DERNIER METAR :
  • 212300Z AUTO 03005KT 9999 NCD 06/03 Q1028

METARs EXPIRÉS :
  • 212230Z AUTO 04004KT 010V070 9999 NCD 05/03 Q1028
  • 212200Z AUTO 31006KT 9999 NCD 09/04 Q1028
  • 212130Z AUTO VRB02KT 9999 NCD 06/03 Q1028
  • 212100Z 32003KT 300V360 CAVOK 07/04 Q1028

TAF TAF LERS
Valide du 21 à 21h jusqu'au 22 à 21h UTC


212000Z 2121/2221 12011KT 9999 FEW030 TX21/2212Z TN07/2206Z
TEMPO 2121/2122 31004KT
BECMG 2122/2124 01006KT
BECMG 2212/2214 12010KT
Pas de NOTAMs connus pour ce terrain.



MET'MAP, la Météo Aéronautique d'un coup d'oeil ! - Copyright ORBIFLY Décembre 2007 - Disclaimer

ORBIFLY MET'MAP TEAM :

Programmation & Développement : Alexandra Zaïnal
Conception & Développement : Baudouin d'Aumeries
Co-Programmation & Développement : Marc-Olivier Méhu
Soutien technique & logistique : Manuel Goepfert

Contact : metmap@orbifly.com




SOURCES & CREDITS :

   NOAA